• Join FlightAware (Why Join?)
  • Login
  • US Flag 
11:58AM EDT


 

Airport Tracker/Info


-or-


 

Live Flight TrackerFlight Track Log ✈ N390PH ✈ 29-Apr-2012 ✈ KCHO - KLYH

Flight Track Log - Related Links

Times and Time Zones

All times are in EDT time to prevent confusion due to time zone crossing. See the N390PH flight status page for this flight to view local times or setup timezone preferences in your user account.

Time Position Orientation Groundspeed Altitude Reporting Facility
EDT Latitude Longitude Course Direction KTS MPH feet Rate Location/Type
02:42AM 38.0333 -78.5500 218° Southwest 90 104 3,700  Level Potomac TRACON
02:43AM 38.0167 -78.5667 218° Southwest 84 97 4,300 540 Climbing Potomac TRACON
02:44AM 38.0000 -78.5833 218° Southwest 82 94 4,800 540 Climbing Potomac TRACON
02:45AM 37.9833 -78.6000 202° Southwest 83 96 5,400 540 Climbing Potomac TRACON
02:46AM 37.9500 -78.6167 218° Southwest 88 101 6,000 300 Climbing Potomac TRACON
02:47AM 37.9333 -78.6333 218° Southwest 97 112 6,000  Level Potomac TRACON
02:48AM 37.9000 -78.6667 218° Southwest 106 122 6,000  Level Potomac TRACON
02:49AM 37.8833 -78.6833 216° Southwest 110 127 6,000  Level Potomac TRACON
02:57AM 37.6733 -78.8755 216° Southwest  Level FlightAware Approximate
02:58AM 37.6445 -78.9016 216° Southwest  Level FlightAware Approximate
02:59AM 37.6157 -78.9276 216° Southwest  Level FlightAware Approximate
03:00AM 37.5869 -78.9536 216° Southwest  Level FlightAware Approximate
03:01AM 37.5580 -78.9796 208° Southwest  Level FlightAware Approximate
03:02AM 37.5269 -79.0007 217° Southwest  Level FlightAware Approximate
03:03AM 37.4985 -79.0274 223° Southwest  Level FlightAware Approximate
03:04AM 37.4731 -79.0577 215° Southwest  Level FlightAware Approximate
03:05AM 37.4441 -79.0834 207° Southwest  Level FlightAware Approximate
03:06AM 37.4128 -79.1039 218° Southwest  Level FlightAware Approximate
03:07AM 37.3851 -79.1316 218° Southwest  Level FlightAware Approximate
03:08AM 37.3573 -79.1593 218° Southwest  Level FlightAware Approximate
03:09AM 37.3296 -79.1871 249° West  Level FlightAware Approximate
03:10AM 37.3172 -79.2288 69° East  Level Estimated
03:11AM 37.3296 -79.1871 218° Southwest  Level Estimated
03:12AM 37.3167 -79.2000 218° Southwest  Level FlightAware Approximate